Time;durP1;ratioP1;P1;durP2;ratioP2;P2;SDS_P1;SDS_P2;PMS_P1;PMS_P2;Temp;Humidity;BMP_temperature;BMP_pressure;BME280_temperature;BME280_humidity;BME280_pressure;Samples;Min_cycle;Max_cycle;Signal;HPM_P1;HPM_P2
2023/01/30 00:02:11;;;;;;;20.83;10.88;;;7.10;99.90;;;;;;5034278;28;20408;-79
2023/01/30 00:04:37;;;;;;;20.83;10.13;;;7.10;99.90;;;;;;5021541;28;20049;-80
2023/01/30 00:07:02;;;;;;;20.90;10.25;;;7.10;99.90;;;;;;5022553;28;20532;-79
2023/01/30 00:09:28;;;;;;;21.15;10.35;;;7.10;99.90;;;;;;5023437;28;20354;-79
2023/01/30 00:11:53;;;;;;;19.33;10.02;;;7.10;99.90;;;;;;5023054;28;20037;-79
2023/01/30 00:14:19;;;;;;;20.10;8.38;;;7.10;99.90;;;;;;5037916;28;20481;-80
2023/01/30 00:16:45;;;;;;;20.55;9.57;;;7.10;99.90;;;;;;5021437;28;20180;-79
2023/01/30 00:19:10;;;;;;;17.85;9.75;;;7.10;99.90;;;;;;5019132;28;20047;-79
2023/01/30 00:21:36;;;;;;;19.90;9.75;;;7.10;99.90;;;;;;5038572;28;20049;-80
2023/01/30 00:24:01;;;;;;;17.85;8.90;;;7.10;99.90;;;;;;5020061;28;20052;-80
2023/01/30 00:26:27;;;;;;;16.88;8.15;;;7.20;99.90;;;;;;5023086;28;20041;-79
2023/01/30 00:28:52;;;;;;;16.42;8.13;;;7.20;99.90;;;;;;5039843;28;20037;-79
2023/01/30 00:31:18;;;;;;;22.77;7.70;;;7.30;99.90;;;;;;5021755;28;20040;-79
2023/01/30 00:33:44;;;;;;;19.38;8.88;;;7.30;99.90;;;;;;5037907;28;20576;-80
2023/01/30 00:36:10;;;;;;;21.00;9.20;;;7.30;99.90;;;;;;5036399;28;20098;-80
2023/01/30 00:38:35;;;;;;;16.23;7.63;;;7.30;99.90;;;;;;5024298;28;20041;-80
2023/01/30 00:41:01;;;;;;;18.73;7.22;;;7.40;99.90;;;;;;5023763;28;20111;-79
2023/01/30 00:49:02;;;;;;;16.90;7.93;;;7.30;99.90;;;;;;5038522;28;20053;-80
2023/01/30 00:51:28;;;;;;;17.25;8.38;;;7.20;99.90;;;;;;5021108;28;20044;-80
2023/01/30 00:53:54;;;;;;;19.25;7.85;;;7.20;99.90;;;;;;5018403;28;20037;-80
2023/01/30 00:56:19;;;;;;;17.85;7.65;;;7.10;99.90;;;;;;5034326;28;20036;-80
2023/01/30 00:58:45;;;;;;;20.20;8.18;;;7.20;99.90;;;;;;5023443;28;20036;-81
2023/01/30 01:01:10;;;;;;;21.45;8.10;;;7.10;99.90;;;;;;5022906;28;20047;-80
2023/01/30 01:03:36;;;;;;;19.90;9.43;;;7.10;99.90;;;;;;5036227;28;20072;-81
2023/01/30 01:06:02;;;;;;;17.63;7.43;;;7.10;99.90;;;;;;5038015;28;20047;-81
2023/01/30 01:08:27;;;;;;;18.05;9.25;;;7.10;99.90;;;;;;5021710;28;20150;-81
2023/01/30 01:10:53;;;;;;;16.48;8.02;;;7.10;99.90;;;;;;5023642;28;20482;-81
2023/01/30 01:13:18;;;;;;;22.17;7.60;;;7.10;99.90;;;;;;5022424;28;20052;-81
2023/01/30 01:15:44;;;;;;;23.02;8.57;;;7.00;99.90;;;;;;5024923;28;20472;-81
2023/01/30 01:18:10;;;;;;;16.02;7.15;;;7.00;99.90;;;;;;5043068;28;20132;-81
2023/01/30 01:20:35;;;;;;;20.80;8.00;;;7.00;99.90;;;;;;5026280;28;20175;-81
2023/01/30 01:23:01;;;;;;;23.05;9.30;;;6.90;99.90;;;;;;5025443;28;20124;-81
2023/01/30 01:25:27;;;;;;;17.52;8.02;;;7.00;99.90;;;;;;5024515;28;20033;-80
2023/01/30 01:27:53;;;;;;;22.25;8.55;;;6.90;99.90;;;;;;5024235;28;20091;-81
2023/01/30 01:30:19;;;;;;;15.50;6.90;;;6.90;99.90;;;;;;5022599;28;20106;-81
2023/01/30 01:32:44;;;;;;;16.33;6.45;;;6.90;99.90;;;;;;5041082;28;20049;-81
2023/01/30 01:35:10;;;;;;;17.92;7.68;;;6.90;99.90;;;;;;5025745;28;20057;-81
2023/01/30 01:37:36;;;;;;;13.85;6.28;;;7.00;99.90;;;;;;5026834;28;20045;-81
2023/01/30 01:42:47;;;;;;;16.83;6.43;;;7.00;99.90;;;;;;5042455;28;20053;-81
2023/01/30 01:45:19;;;;;;;17.95;7.53;;;7.00;99.90;;;;;;5023089;28;20056;-81
2023/01/30 01:48:04;;;;;;;19.30;8.30;;;7.10;99.90;;;;;;5023999;28;20052;-80
2023/01/30 01:50:42;;;;;;;19.80;7.78;;;7.10;99.90;;;;;;5024502;28;20540;-80
2023/01/30 01:53:11;;;;;;;13.95;6.28;;;7.10;99.90;;;;;;5024861;28;20041;-81
2023/01/30 01:55:38;;;;;;;21.70;8.27;;;7.10;99.90;;;;;;5038247;28;20049;-80
2023/01/30 01:58:10;;;;;;;12.43;5.90;;;7.20;99.90;;;;;;5041366;28;20044;-80
2023/01/30 02:00:36;;;;;;;20.27;7.93;;;7.10;99.90;;;;;;5037738;28;20041;-81
2023/01/30 02:03:05;;;;;;;19.05;8.93;;;7.10;99.90;;;;;;5039684;28;20049;-81
2023/01/30 02:05:34;;;;;;;23.50;9.57;;;7.10;99.90;;;;;;5023938;28;20041;-80
2023/01/30 02:08:01;;;;;;;22.33;8.98;;;7.20;99.90;;;;;;5024784;28;20080;-80
2023/01/30 02:10:53;;;;;;;22.73;8.60;;;7.10;99.90;;;;;;5022182;28;20052;-81
2023/01/30 02:13:19;;;;;;;27.83;9.07;;;7.20;99.90;;;;;;5041388;28;20111;-80
2023/01/30 02:15:45;;;;;;;18.63;7.55;;;7.20;99.90;;;;;;5040340;28;20133;-80
2023/01/30 02:18:12;;;;;;;23.42;9.70;;;7.20;99.90;;;;;;5041179;28;20112;-81
2023/01/30 02:21:23;;;;;;;22.67;9.00;;;7.30;99.90;;;;;;5022473;28;20049;-81
2023/01/30 02:24:15;;;;;;;18.65;8.52;;;7.30;99.90;;;;;;5039897;28;20112;-81
2023/01/30 02:27:07;;;;;;;20.90;6.78;;;7.30;99.90;;;;;;5025840;28;20041;-80
2023/01/30 02:29:57;;;;;;;24.60;9.55;;;7.30;99.90;;;;;;5042384;28;20370;-81
2023/01/30 02:32:54;;;;;;;26.95;8.57;;;7.30;99.90;;;;;;5022573;28;20047;-80
2023/01/30 02:35:25;;;;;;;21.98;8.50;;;7.30;99.90;;;;;;5037885;28;20382;-81
2023/01/30 02:38:11;;;;;;;28.25;7.57;;;7.30;99.90;;;;;;5040859;28;20132;-81
2023/01/30 02:41:07;;;;;;;27.77;7.93;;;7.30;99.90;;;;;;5039665;28;20060;-80
2023/01/30 02:43:55;;;;;;;21.27;7.68;;;7.30;99.90;;;;;;5038759;28;20028;-81
2023/01/30 02:46:31;;;;;;;19.73;8.02;;;7.30;99.90;;;;;;5024535;28;20057;-81
2023/01/30 02:49:38;;;;;;;21.35;6.53;;;7.30;99.90;;;;;;5022642;28;20036;-81
2023/01/30 02:52:07;;;;;;;25.00;8.15;;;7.40;99.90;;;;;;4985056;28;20046;-81
2023/01/30 02:54:33;;;;;;;27.42;7.43;;;7.40;99.90;;;;;;5015459;28;20149;-80
2023/01/30 02:56:59;;;;;;;23.85;7.72;;;7.40;99.90;;;;;;5023363;28;20127;-81
2023/01/30 02:59:28;;;;;;;25.23;7.60;;;7.40;99.90;;;;;;5037235;28;20553;-81
2023/01/30 03:02:27;;;;;;;26.13;7.75;;;7.40;99.90;;;;;;5022713;28;20052;-80
2023/01/30 03:05:22;;;;;;;21.90;5.97;;;7.40;99.90;;;;;;5018184;28;20050;-81
2023/01/30 03:08:09;;;;;;;27.02;8.80;;;7.40;99.90;;;;;;5021558;28;20052;-80
2023/01/30 03:10:45;;;;;;;22.88;7.07;;;7.50;99.90;;;;;;5021461;28;20128;-80
2023/01/30 03:13:34;;;;;;;11.45;5.28;;;7.50;99.90;;;;;;5022354;28;20044;-80
2023/01/30 03:16:30;;;;;;;24.10;6.25;;;7.50;99.90;;;;;;4992844;28;20190;-79
2023/01/30 03:18:58;;;;;;;26.45;7.10;;;7.50;99.90;;;;;;5025260;28;20037;-78
2023/01/30 03:21:24;;;;;;;24.95;6.60;;;7.50;99.90;;;;;;5018138;28;20370;-79
2023/01/30 03:23:50;;;;;;;28.65;6.93;;;7.50;99.90;;;;;;5024099;28;20033;-80
2023/01/30 03:26:39;;;;;;;20.15;6.45;;;7.50;99.90;;;;;;5024791;28;20059;-79
2023/01/30 03:29:05;;;;;;;21.35;6.47;;;7.40;99.90;;;;;;5022728;28;20045;-79
2023/01/30 03:31:30;;;;;;;23.65;6.47;;;7.40;99.90;;;;;;5040729;28;20040;-79
2023/01/30 03:33:56;;;;;;;21.55;6.03;;;7.30;99.90;;;;;;5023367;28;20413;-79
2023/01/30 03:36:22;;;;;;;21.63;5.32;;;7.20;99.90;;;;;;5037354;28;20049;-79
2023/01/30 03:38:49;;;;;;;17.20;4.97;;;7.10;99.90;;;;;;5037986;28;20123;-79
2023/01/30 03:41:15;;;;;;;22.00;5.72;;;7.10;99.90;;;;;;5040018;28;20053;-81
2023/01/30 03:43:40;;;;;;;21.88;5.38;;;7.00;99.90;;;;;;5018453;28;20025;-81
2023/01/30 03:46:06;;;;;;;21.55;5.35;;;7.00;99.90;;;;;;5025566;28;20527;-81
2023/01/30 03:48:32;;;;;;;17.75;5.00;;;6.90;99.90;;;;;;5022280;28;20150;-83
2023/01/30 03:50:57;;;;;;;18.38;4.95;;;6.90;99.90;;;;;;5022392;28;20049;-82
2023/01/30 03:53:23;;;;;;;20.35;5.60;;;6.90;99.90;;;;;;5024210;28;20037;-82
2023/01/30 03:55:48;;;;;;;16.13;4.90;;;7.00;99.90;;;;;;5023330;28;20048;-81
2023/01/30 03:58:14;;;;;;;25.23;5.95;;;7.00;99.90;;;;;;5021241;28;20493;-81
2023/01/30 04:00:40;;;;;;;18.33;5.40;;;6.90;99.90;;;;;;5035208;28;20049;-79
2023/01/30 04:03:06;;;;;;;21.75;5.50;;;6.90;99.90;;;;;;5023026;28;20043;-79
2023/01/30 04:05:32;;;;;;;16.17;4.45;;;6.90;99.90;;;;;;5040600;28;20088;-79
2023/01/30 04:07:58;;;;;;;21.60;5.30;;;6.90;99.90;;;;;;5021854;28;20049;-79
2023/01/30 04:10:24;;;;;;;19.30;4.47;;;7.00;99.90;;;;;;5040329;28;20041;-79
2023/01/30 04:12:50;;;;;;;20.00;5.22;;;6.90;99.90;;;;;;5022749;28;20041;-78
2023/01/30 04:15:16;;;;;;;26.92;5.78;;;6.90;99.90;;;;;;5036640;28;20050;-79
2023/01/30 04:17:46;;;;;;;21.23;5.43;;;6.90;99.90;;;;;;5039690;28;21506;-81
2023/01/30 04:20:12;;;;;;;20.70;5.03;;;6.80;99.90;;;;;;5021518;28;20424;-81
2023/01/30 04:22:38;;;;;;;21.10;5.70;;;6.80;99.90;;;;;;5020689;28;20037;-82
2023/01/30 04:25:04;;;;;;;25.17;5.63;;;6.70;99.90;;;;;;5037678;28;20544;-82
2023/01/30 04:27:30;;;;;;;26.80;6.10;;;6.70;99.90;;;;;;5018979;28;20102;-81
2023/01/30 04:29:55;;;;;;;19.75;4.90;;;6.70;99.90;;;;;;5022553;28;20044;-81
2023/01/30 04:32:21;;;;;;;23.35;5.78;;;6.70;99.90;;;;;;5039640;28;20616;-81
2023/01/30 04:34:46;;;;;;;21.13;5.50;;;6.70;99.90;;;;;;5023755;28;20043;-82
2023/01/30 04:37:12;;;;;;;23.38;5.88;;;6.70;99.90;;;;;;5019430;28;20442;-82
2023/01/30 04:39:38;;;;;;;21.08;5.07;;;6.70;99.90;;;;;;5020670;28;20555;-82
2023/01/30 04:42:04;;;;;;;21.27;4.70;;;6.70;99.90;;;;;;5021005;28;20489;-82
2023/01/30 04:44:29;;;;;;;20.20;4.45;;;6.70;99.90;;;;;;5020882;28;20090;-79
2023/01/30 04:46:55;;;;;;;17.48;3.72;;;6.70;99.90;;;;;;5038973;28;20044;-81
2023/01/30 04:49:20;;;;;;;19.70;4.82;;;6.70;99.90;;;;;;5018321;28;20040;-82
2023/01/30 04:51:46;;;;;;;23.63;5.45;;;6.70;99.90;;;;;;5021104;28;20151;-81
2023/01/30 04:54:12;;;;;;;20.13;5.00;;;6.60;99.90;;;;;;5039281;28;20377;-81
2023/01/30 04:56:38;;;;;;;21.85;4.30;;;6.70;99.90;;;;;;5019886;28;20126;-81
2023/01/30 04:59:03;;;;;;;21.48;4.35;;;6.60;99.90;;;;;;5037142;28;20049;-82
2023/01/30 05:01:36;;;;;;;20.30;4.20;;;6.60;99.90;;;;;;5038661;28;20051;-81
2023/01/30 05:04:03;;;;;;;17.65;4.43;;;6.50;99.90;;;;;;5034382;28;20064;-81
2023/01/30 05:06:30;;;;;;;17.67;4.18;;;6.50;99.90;;;;;;5018337;28;20037;-81
2023/01/30 05:08:56;;;;;;;21.20;4.43;;;6.40;99.90;;;;;;5038697;28;20127;-82
2023/01/30 05:11:24;;;;;;;21.23;4.10;;;6.40;99.90;;;;;;5022259;28;20041;-79
2023/01/30 05:13:50;;;;;;;21.48;4.40;;;6.40;99.90;;;;;;5034874;28;20045;-79
2023/01/30 05:16:17;;;;;;;24.63;5.07;;;6.40;99.90;;;;;;5020023;28;20064;-79
2023/01/30 05:18:43;;;;;;;16.70;3.83;;;6.40;99.90;;;;;;5023241;28;20106;-79
2023/01/30 05:21:13;;;;;;;22.38;4.95;;;6.40;99.90;;;;;;5039990;28;20041;-80
2023/01/30 05:23:39;;;;;;;18.23;4.43;;;6.30;99.90;;;;;;5020086;28;20037;-80
2023/01/30 05:26:05;;;;;;;27.27;4.63;;;6.30;99.90;;;;;;5022005;28;20094;-79
2023/01/30 05:28:31;;;;;;;20.02;5.38;;;6.40;99.90;;;;;;5021163;28;20521;-80
2023/01/30 05:31:01;;;;;;;24.00;4.50;;;6.30;99.90;;;;;;5036257;28;20088;-79
2023/01/30 05:33:26;;;;;;;25.20;4.50;;;6.30;99.90;;;;;;5038659;28;20139;-79
2023/01/30 05:35:52;;;;;;;20.92;4.47;;;6.30;99.90;;;;;;5032109;28;20215;-80
2023/01/30 05:38:17;;;;;;;20.20;4.90;;;6.30;99.90;;;;;;5041265;28;20044;-80
2023/01/30 05:40:43;;;;;;;19.85;4.88;;;6.30;99.90;;;;;;5021440;28;20052;-79
2023/01/30 05:43:08;;;;;;;20.02;4.13;;;6.30;99.90;;;;;;5035766;28;20041;-79
2023/01/30 05:45:35;;;;;;;18.33;4.50;;;6.30;99.90;;;;;;5037781;28;20616;-79
2023/01/30 05:48:01;;;;;;;25.52;5.32;;;6.30;99.90;;;;;;5019364;28;20038;-79
2023/01/30 05:50:27;;;;;;;20.50;4.30;;;6.30;99.90;;;;;;5037340;28;20454;-79
2023/01/30 05:52:53;;;;;;;25.55;5.43;;;6.20;99.90;;;;;;5036352;28;20527;-79
2023/01/30 05:55:18;;;;;;;25.25;5.93;;;6.20;99.90;;;;;;5022224;28;20131;-80
2023/01/30 05:57:44;;;;;;;20.80;4.72;;;6.20;99.90;;;;;;5022552;28;20036;-79
2023/01/30 06:00:10;;;;;;;23.10;4.30;;;6.20;99.90;;;;;;5026025;28;20124;-79
2023/01/30 06:02:37;;;;;;;22.48;4.50;;;6.20;99.90;;;;;;5040982;28;20053;-79
2023/01/30 06:05:02;;;;;;;20.52;4.38;;;6.20;99.90;;;;;;5027020;28;20417;-79
2023/01/30 06:07:28;;;;;;;23.23;5.40;;;6.30;99.90;;;;;;5026093;28;20037;-79
2023/01/30 06:09:53;;;;;;;17.33;3.72;;;6.40;99.90;;;;;;5023486;28;20037;-79
2023/01/30 06:12:19;;;;;;;24.83;5.28;;;6.40;99.90;;;;;;5040855;28;20045;-79
2023/01/30 06:14:45;;;;;;;25.10;5.53;;;6.50;99.90;;;;;;5023656;28;20391;-80
2023/01/30 06:17:10;;;;;;;22.67;5.38;;;6.60;99.90;;;;;;5023378;28;20516;-80
2023/01/30 06:19:36;;;;;;;23.30;5.18;;;6.60;99.90;;;;;;5039360;28;20051;-79
2023/01/30 06:22:02;;;;;;;22.48;4.38;;;6.60;99.90;;;;;;5028940;28;20049;-80
2023/01/30 06:24:27;;;;;;;20.63;4.43;;;6.60;99.90;;;;;;5023974;28;20120;-79
2023/01/30 06:26:53;;;;;;;17.80;4.53;;;6.70;99.90;;;;;;5025012;28;20036;-79
2023/01/30 06:29:19;;;;;;;23.65;4.63;;;6.70;99.90;;;;;;5042092;28;20544;-80
2023/01/30 06:31:44;;;;;;;27.75;4.45;;;6.70;99.90;;;;;;5038459;28;20760;-80
2023/01/30 06:34:10;;;;;;;21.70;4.75;;;6.70;99.90;;;;;;5024509;28;20037;-79
2023/01/30 06:36:36;;;;;;;17.08;3.63;;;6.70;99.90;;;;;;5022946;28;20052;-79
2023/01/30 06:39:02;;;;;;;23.90;5.03;;;6.70;99.90;;;;;;5022529;28;20092;-79
2023/01/30 06:41:28;;;;;;;22.80;4.35;;;6.70;99.90;;;;;;5041232;28;20159;-79
2023/01/30 06:43:54;;;;;;;23.77;5.20;;;6.70;99.90;;;;;;5021632;28;20124;-79
2023/01/30 06:46:20;;;;;;;16.33;4.25;;;6.70;99.90;;;;;;5040102;28;20136;-79
2023/01/30 06:48:45;;;;;;;25.58;4.60;;;6.70;99.90;;;;;;5024469;28;20125;-79
2023/01/30 06:51:11;;;;;;;24.42;4.85;;;6.80;99.90;;;;;;5035841;28;20052;-79
2023/01/30 06:53:37;;;;;;;19.02;4.65;;;6.90;99.90;;;;;;5037932;28;20053;-80
2023/01/30 06:56:03;;;;;;;25.25;4.82;;;6.90;99.90;;;;;;5020394;28;20052;-79
2023/01/30 06:58:28;;;;;;;20.90;4.22;;;6.80;99.90;;;;;;5039395;28;20043;-79
2023/01/30 07:00:54;;;;;;;22.13;5.13;;;6.90;99.90;;;;;;5021399;28;20045;-79
2023/01/30 07:03:20;;;;;;;25.75;4.78;;;6.90;99.90;;;;;;5040163;28;20554;-79
2023/01/30 07:05:47;;;;;;;24.52;4.57;;;6.90;99.90;;;;;;5020565;28;20068;-79
2023/01/30 07:08:14;;;;;;;25.42;4.80;;;6.90;99.90;;;;;;5037445;28;20037;-79
2023/01/30 07:10:40;;;;;;;23.70;4.18;;;6.80;99.90;;;;;;5023830;28;20051;-79
2023/01/30 07:13:06;;;;;;;23.67;5.20;;;6.80;99.90;;;;;;5020169;28;20052;-78
2023/01/30 07:15:32;;;;;;;21.80;4.72;;;6.80;99.90;;;;;;5018526;28;20041;-79
2023/01/30 07:17:58;;;;;;;28.98;5.80;;;6.80;99.90;;;;;;5022301;28;20044;-79
2023/01/30 07:20:24;;;;;;;22.20;5.10;;;6.80;99.90;;;;;;5024085;28;20083;-79
2023/01/30 07:22:51;;;;;;;18.92;4.65;;;6.80;99.90;;;;;;5037846;28;20037;-79
2023/01/30 07:25:18;;;;;;;26.30;6.22;;;6.90;99.90;;;;;;5020931;28;20144;-79
2023/01/30 07:27:49;;;;;;;23.10;5.53;;;6.90;99.90;;;;;;5038238;28;20127;-79
2023/01/30 07:30:16;;;;;;;20.27;4.38;;;6.90;99.90;;;;;;5023834;28;20501;-79
2023/01/30 07:32:41;;;;;;;23.45;4.85;;;6.90;99.90;;;;;;5020103;28;20126;-80
2023/01/30 07:35:07;;;;;;;26.70;6.15;;;6.80;99.90;;;;;;5022867;28;20104;-79
2023/01/30 07:37:33;;;;;;;23.15;4.85;;;6.90;99.90;;;;;;5040130;28;20102;-79
2023/01/30 07:39:58;;;;;;;21.23;4.90;;;6.90;99.90;;;;;;5024300;28;20515;-80
2023/01/30 07:42:24;;;;;;;25.17;5.05;;;6.90;99.90;;;;;;5022166;28;20040;-79
2023/01/30 07:44:50;;;;;;;23.27;4.78;;;6.90;99.90;;;;;;5019485;28;20084;-80
2023/01/30 07:47:15;;;;;;;27.13;5.22;;;6.90;99.90;;;;;;5059764;28;20051;-80
2023/01/30 07:49:41;;;;;;;22.50;5.95;;;6.90;99.90;;;;;;5018916;28;20041;-80
2023/01/30 07:52:06;;;;;;;23.92;5.03;;;6.90;99.90;;;;;;5037927;28;20049;-80
2023/01/30 07:54:32;;;;;;;26.08;5.60;;;6.90;99.90;;;;;;5036671;28;20504;-80
2023/01/30 07:56:58;;;;;;;27.58;6.13;;;7.00;99.90;;;;;;5023825;28;20041;-80
2023/01/30 07:59:23;;;;;;;22.83;4.60;;;7.00;99.90;;;;;;5020756;28;20072;-80
2023/01/30 08:01:49;;;;;;;22.20;5.07;;;7.00;99.90;;;;;;5023435;28;20462;-80
2023/01/30 08:04:14;;;;;;;19.52;4.88;;;7.00;99.90;;;;;;5041248;28;20538;-80
2023/01/30 08:06:40;;;;;;;24.27;5.45;;;7.00;99.90;;;;;;5034778;28;20045;-80
2023/01/30 08:09:06;;;;;;;18.55;4.60;;;7.00;99.90;;;;;;5039263;28;20036;-81
2023/01/30 08:11:32;;;;;;;21.90;4.60;;;7.10;99.90;;;;;;5022647;28;20485;-80
2023/01/30 08:13:57;;;;;;;23.83;5.40;;;7.00;99.90;;;;;;5036250;28;20103;-81
2023/01/30 08:16:23;;;;;;;24.58;4.78;;;7.10;99.90;;;;;;5021511;28;20409;-80
2023/01/30 08:18:48;;;;;;;29.13;5.15;;;7.10;99.90;;;;;;5021286;28;20098;-80
2023/01/30 08:21:14;;;;;;;21.15;4.05;;;7.10;99.90;;;;;;5023145;28;20039;-81
2023/01/30 08:23:39;;;;;;;21.40;4.32;;;7.10;99.90;;;;;;5035236;28;20504;-80
2023/01/30 08:26:05;;;;;;;23.75;5.25;;;7.10;99.90;;;;;;5038320;28;20037;-80
2023/01/30 08:28:31;;;;;;;21.15;4.93;;;7.10;99.90;;;;;;5021929;28;20630;-80
2023/01/30 08:30:57;;;;;;;21.90;5.15;;;7.10;99.90;;;;;;5039776;28;20037;-80
2023/01/30 08:33:23;;;;;;;27.23;4.88;;;7.10;99.90;;;;;;5019059;28;20443;-80
2023/01/30 08:35:50;;;;;;;22.92;4.47;;;7.10;99.90;;;;;;5038772;28;20062;-80
2023/01/30 08:38:16;;;;;;;24.50;4.47;;;7.20;99.90;;;;;;5023728;28;20037;-80
2023/01/30 08:40:42;;;;;;;24.98;4.93;;;7.20;99.90;;;;;;5022659;28;20469;-80
2023/01/30 08:43:07;;;;;;;25.00;4.53;;;7.20;99.90;;;;;;5018211;28;20103;-80
2023/01/30 08:45:33;;;;;;;17.75;4.82;;;7.20;99.90;;;;;;5021236;28;20072;-80
2023/01/30 08:48:04;;;;;;;24.85;5.18;;;7.30;99.90;;;;;;5022412;28;20491;-80
2023/01/30 08:50:30;;;;;;;21.85;4.53;;;7.20;99.90;;;;;;5031821;28;20053;-80
2023/01/30 08:52:56;;;;;;;24.70;5.07;;;7.20;99.90;;;;;;5016904;28;20477;-80
2023/01/30 08:55:22;;;;;;;26.80;5.00;;;7.10;99.90;;;;;;5023048;28;20045;-80
2023/01/30 08:57:48;;;;;;;22.27;5.25;;;7.20;99.90;;;;;;5016901;28;20548;-81
2023/01/30 09:00:14;;;;;;;25.88;5.93;;;7.30;99.90;;;;;;5018635;28;20428;-81
2023/01/30 09:02:40;;;;;;;24.15;5.45;;;7.40;99.90;;;;;;5018615;28;20033;-79
2023/01/30 09:05:07;;;;;;;22.58;5.13;;;7.50;99.90;;;;;;5032145;28;20623;-79
2023/01/30 09:07:33;;;;;;;21.00;4.47;;;7.70;99.90;;;;;;5032260;28;20161;-80
2023/01/30 09:09:58;;;;;;;20.88;4.82;;;7.70;99.90;;;;;;5016409;28;20417;-80
2023/01/30 09:12:24;;;;;;;21.85;4.65;;;7.70;99.90;;;;;;5020217;28;20052;-81
2023/01/30 09:14:52;;;;;;;24.38;5.63;;;7.70;99.90;;;;;;5037594;28;20041;-80
2023/01/30 09:17:18;;;;;;;22.50;4.80;;;7.70;99.90;;;;;;5016197;28;20131;-80
2023/01/30 09:19:43;;;;;;;20.52;4.57;;;7.60;99.90;;;;;;5030633;28;20640;-79
2023/01/30 09:22:09;;;;;;;24.40;4.53;;;7.60;99.90;;;;;;5031006;28;20045;-80
2023/01/30 09:24:35;;;;;;;23.05;4.38;;;7.60;99.90;;;;;;5014803;28;20072;-80
2023/01/30 09:27:00;;;;;;;20.02;6.05;;;7.70;99.90;;;;;;5015481;28;20048;-80
2023/01/30 09:29:27;;;;;;;20.83;5.40;;;7.70;99.90;;;;;;5029739;28;20482;-80
2023/01/30 09:31:55;;;;;;;23.60;4.70;;;7.70;99.90;;;;;;5040188;28;20553;-80
2023/01/30 09:34:27;;;;;;;27.30;5.43;;;7.70;99.90;;;;;;5022051;28;20484;-79
2023/01/30 09:37:00;;;;;;;24.67;5.20;;;7.70;99.90;;;;;;5024754;28;20045;-80
2023/01/30 09:39:27;;;;;;;25.55;5.63;;;7.60;99.90;;;;;;5020232;28;20044;-80
2023/01/30 09:42:04;;;;;;;22.13;5.15;;;7.50;99.90;;;;;;5023295;28;20048;-80
2023/01/30 09:44:55;;;;;;;27.60;5.55;;;7.40;99.90;;;;;;5023213;28;20048;-80
2023/01/30 09:47:46;;;;;;;27.73;6.00;;;7.30;99.90;;;;;;5026352;28;20114;-81
2023/01/30 09:50:46;;;;;;;28.05;6.43;;;7.40;99.90;;;;;;5039806;28;20060;-80
2023/01/30 09:53:17;;;;;;;22.67;4.97;;;7.40;99.90;;;;;;5026630;28;20728;-80
2023/01/30 09:55:45;;;;;;;31.60;6.07;;;7.40;99.90;;;;;;5041007;28;20049;-80
2023/01/30 09:58:20;;;;;;;24.33;4.80;;;7.40;99.90;;;;;;5022528;28;20045;-80
2023/01/30 10:00:48;;;;;;;25.50;4.90;;;7.50;99.90;;;;;;5024773;28;20067;-80
2023/01/30 10:03:15;;;;;;;24.20;5.18;;;7.50;99.90;;;;;;5033248;28;20393;-80
2023/01/30 10:06:11;;;;;;;22.30;5.57;;;7.50;99.90;;;;;;5020052;28;20052;-80
2023/01/30 10:08:49;;;;;;;20.65;5.00;;;7.60;99.90;;;;;;5018172;28;20394;-79
2023/01/30 10:11:48;;;;;;;22.60;5.35;;;7.60;99.90;;;;;;5033511;28;20469;-79
2023/01/30 10:14:23;;;;;;;22.85;4.50;;;7.70;99.90;;;;;;5019881;28;20052;-80
2023/01/30 10:17:10;;;;;;;31.90;5.25;;;7.80;99.90;;;;;;5033416;28;20041;-81
2023/01/30 10:19:53;;;;;;;25.00;5.32;;;7.80;99.90;;;;;;5032890;28;20049;-81
2023/01/30 10:22:40;;;;;;;26.65;6.15;;;7.90;99.90;;;;;;5019882;28;20049;-79
2023/01/30 10:25:21;;;;;;;25.88;5.38;;;7.90;99.90;;;;;;5017333;28;20040;-80
2023/01/30 10:27:58;;;;;;;27.58;5.57;;;7.90;99.90;;;;;;5028684;28;20056;-80
2023/01/30 10:30:24;;;;;;;22.10;4.28;;;7.80;99.90;;;;;;5025638;28;20076;-81
2023/01/30 10:33:12;;;;;;;12.55;3.22;;;7.30;99.90;;;;;;5015954;28;20073;-81
2023/01/30 10:35:41;;;;;;;7.63;3.20;;;6.70;99.90;;;;;;5016567;28;20045;-80
2023/01/30 10:38:25;;;;;;;7.07;2.45;;;6.20;99.90;;;;;;5017319;28;20090;-80
2023/01/30 10:40:55;;;;;;;;;;;5.90;99.90;;;;;;5016364;28;20081;-80
2023/01/30 10:43:40;;;;;;;10.50;3.13;;;5.70;99.90;;;;;;5013780;28;20379;-81
2023/01/30 10:46:33;;;;;;;11.38;2.88;;;5.70;99.90;;;;;;5031663;28;20475;-79
2023/01/30 10:49:22;;;;;;;14.82;2.95;;;5.80;99.90;;;;;;5013346;28;20064;-80
2023/01/30 10:52:03;;;;;;;7.57;2.78;;;6.00;99.90;;;;;;5012435;28;20049;-79
2023/01/30 10:54:57;;;;;;;11.15;3.53;;;6.20;99.90;;;;;;5042004;28;20449;-80
2023/01/30 10:57:36;;;;;;;16.17;3.42;;;6.30;99.90;;;;;;5015630;28;20032;-80
2023/01/30 11:00:11;;;;;;;14.50;3.55;;;6.50;99.90;;;;;;5006669;28;20069;-80
2023/01/30 11:02:57;;;;;;;18.80;4.03;;;6.70;99.90;;;;;;5020379;28;20041;-80
2023/01/30 11:05:29;;;;;;;16.80;4.10;;;6.90;99.90;;;;;;5023920;28;20033;-79
2023/01/30 11:07:55;;;;;;;16.10;4.20;;;7.00;99.90;;;;;;5018477;28;20088;-79
2023/01/30 11:10:23;;;;;;;12.88;2.92;;;7.10;99.90;;;;;;5033126;28;20038;-79
2023/01/30 11:13:09;;;;;;;25.40;4.35;;;7.20;99.90;;;;;;5019081;28;20053;-79
2023/01/30 11:15:44;;;;;;;21.48;3.90;;;7.30;99.90;;;;;;5035353;28;20037;-79
2023/01/30 11:18:11;;;;;;;15.38;3.17;;;7.50;99.90;;;;;;5021468;28;20048;-79
2023/01/30 11:20:42;;;;;;;15.13;4.13;;;7.60;99.90;;;;;;5018535;28;20045;-80
2023/01/30 11:23:21;;;;;;;12.73;3.08;;;7.70;99.90;;;;;;5035577;28;20437;-80
2023/01/30 11:25:49;;;;;;;10.25;2.92;;;7.70;99.90;;;;;;5032593;28;20064;-80
2023/01/30 11:28:16;;;;;;;14.38;3.63;;;7.60;99.90;;;;;;5034885;28;20112;-80
2023/01/30 11:30:42;;;;;;;15.02;3.78;;;7.50;99.90;;;;;;5019957;28;20079;-80
2023/01/30 11:33:16;;;;;;;14.60;3.40;;;7.40;99.90;;;;;;5016013;28;20041;-79
2023/01/30 11:36:03;;;;;;;16.52;3.33;;;7.40;99.90;;;;;;5035504;28;20056;-79
2023/01/30 11:38:34;;;;;;;13.98;3.80;;;7.40;99.90;;;;;;5015693;28;20037;-79
2023/01/30 11:41:06;;;;;;;15.23;3.88;;;7.50;99.90;;;;;;5018070;28;20123;-79
2023/01/30 11:43:33;;;;;;;15.45;3.83;;;7.70;99.90;;;;;;5017536;28;20061;-79
2023/01/30 11:45:59;;;;;;;13.18;3.10;;;7.70;99.90;;;;;;5030743;28;20068;-79
2023/01/30 11:48:29;;;;;;;14.45;3.00;;;7.80;99.90;;;;;;5017982;28;20068;-79
2023/01/30 11:51:03;;;;;;;16.13;3.17;;;7.90;99.90;;;;;;5030416;28;20409;-79
2023/01/30 11:53:43;;;;;;;11.05;3.05;;;8.10;99.90;;;;;;5032358;28;20509;-78
2023/01/30 11:56:19;;;;;;;10.77;2.60;;;8.30;99.90;;;;;;5034860;28;20037;-79
2023/01/30 11:58:57;;;;;;;14.57;3.08;;;8.30;99.90;;;;;;5037246;28;20118;-79
2023/01/30 12:01:29;;;;;;;8.55;2.80;;;8.30;99.90;;;;;;5030878;28;20052;-79
2023/01/30 12:03:56;;;;;;;12.63;3.30;;;8.30;99.90;;;;;;5013802;28;20037;-79
2023/01/30 12:06:31;;;;;;;8.70;3.28;;;8.30;99.90;;;;;;5019585;28;20040;-79
2023/01/30 12:08:57;;;;;;;15.00;4.20;;;8.20;99.90;;;;;;5029556;28;20037;-79
2023/01/30 12:11:39;;;;;;;13.75;3.47;;;8.20;99.90;;;;;;5010362;28;20250;-79
2023/01/30 12:14:39;;;;;;;14.32;2.95;;;8.00;99.90;;;;;;5012287;28;20460;-78
2023/01/30 12:17:31;;;;;;;18.40;3.58;;;8.00;99.90;;;;;;5033307;28;20045;-79
2023/01/30 12:20:12;;;;;;;18.88;3.90;;;7.90;99.90;;;;;;5028981;28;20134;-79
2023/01/30 12:22:48;;;;;;;14.50;3.50;;;7.90;99.90;;;;;;5030773;28;20083;-79
2023/01/30 12:25:34;;;;;;;19.83;4.05;;;7.80;99.90;;;;;;5013005;28;20080;-79
2023/01/30 12:28:37;;;;;;;19.55;3.92;;;7.90;99.90;;;;;;5014747;28;21070;-78
2023/01/30 12:31:07;;;;;;;18.52;3.80;;;7.90;99.90;;;;;;5018714;28;20040;-79
2023/01/30 12:33:34;;;;;;;20.40;3.65;;;7.90;99.90;;;;;;5014682;28;20037;-78
2023/01/30 12:36:41;;;;;;;22.02;4.32;;;7.90;99.90;;;;;;5034312;28;20041;-79
2023/01/30 12:39:35;;;;;;;18.63;3.92;;;8.00;99.90;;;;;;5017428;28;20040;-79
2023/01/30 12:42:16;;;;;;;22.87;4.00;;;8.30;99.90;;;;;;5032462;28;20408;-77
2023/01/30 12:45:10;;;;;;;13.05;4.03;;;8.40;99.90;;;;;;5022743;28;20067;-77
2023/01/30 12:47:56;;;;;;;14.85;3.70;;;8.50;99.90;;;;;;5016822;28;20567;-78
2023/01/30 12:50:32;;;;;;;16.85;3.58;;;8.40;99.90;;;;;;5018601;28;20048;-77
2023/01/30 12:53:24;;;;;;;17.92;4.03;;;8.40;99.90;;;;;;5023289;28;20433;-78
2023/01/30 12:56:37;;;;;;;19.10;4.75;;;8.40;99.90;;;;;;5017926;28;20443;-77
2023/01/30 12:59:09;;;;;;;20.88;4.30;;;8.30;99.90;;;;;;5005842;28;20417;-77
2023/01/30 13:01:47;;;;;;;18.13;3.78;;;8.30;99.90;;;;;;5033259;28;20049;-77
2023/01/30 13:04:36;;;;;;;17.98;3.47;;;8.30;99.90;;;;;;5012642;28;20037;-78
2023/01/30 13:07:21;;;;;;;17.67;3.88;;;8.30;99.90;;;;;;5028775;28;20056;-77
2023/01/30 13:10:09;;;;;;;19.20;3.70;;;8.30;99.90;;;;;;5024715;28;20044;-77
2023/01/30 13:13:01;;;;;;;21.65;4.20;;;8.30;99.90;;;;;;5022419;28;20052;-79
2023/01/30 13:15:46;;;;;;;18.80;4.88;;;8.20;99.90;;;;;;5060867;28;20098;-78
2023/01/30 13:18:17;;;;;;;31.17;5.80;;;8.20;99.90;;;;;;5033585;28;20436;-77